sensor_id;sensor_type;location;lat;lon;timestamp;P1;P2;P0
73917;PMS5003;63639;52.280;5.162;2022-11-15T00:00:56;55;53;
73917;PMS5003;63639;52.280;5.162;2022-11-15T00:03:23;61;53;
73917;PMS5003;63639;52.280;5.162;2022-11-15T00:05:52;61;58;
73917;PMS5003;63639;52.280;5.162;2022-11-15T00:08:19;63;58;
73917;PMS5003;63639;52.280;5.162;2022-11-15T00:10:53;60;54;
73917;PMS5003;63639;52.280;5.162;2022-11-15T00:13:21;69;59;
73917;PMS5003;63639;52.280;5.162;2022-11-15T00:15:48;67;56;
73917;PMS5003;63639;52.280;5.162;2022-11-15T00:18:15;60;53;
73917;PMS5003;63639;52.280;5.162;2022-11-15T00:20:42;66;53;
73917;PMS5003;63639;52.280;5.162;2022-11-15T00:23:10;67;58;
73917;PMS5003;63639;52.280;5.162;2022-11-15T00:25:36;61;53;
73917;PMS5003;63639;52.280;5.162;2022-11-15T00:28:03;62;56;
73917;PMS5003;63639;52.280;5.162;2022-11-15T00:30:30;61;59;
73917;PMS5003;63639;52.280;5.162;2022-11-15T00:33:01;67;59;
73917;PMS5003;63639;52.280;5.162;2022-11-15T00:35:30;65;53;
73917;PMS5003;63639;52.280;5.162;2022-11-15T00:37:58;73;61;
73917;PMS5003;63639;52.280;5.162;2022-11-15T00:40:25;75;61;
73917;PMS5003;63639;52.280;5.162;2022-11-15T00:42:52;69;59;
73917;PMS5003;63639;52.280;5.162;2022-11-15T00:45:19;68;57;
73917;PMS5003;63639;52.280;5.162;2022-11-15T00:47:45;66;63;
73917;PMS5003;63639;52.280;5.162;2022-11-15T00:50:13;61;55;
73917;PMS5003;63639;52.280;5.162;2022-11-15T00:52:40;76;59;
73917;PMS5003;63639;52.280;5.162;2022-11-15T00:55:07;60;53;
73917;PMS5003;63639;52.280;5.162;2022-11-15T00:57:35;69;49;
73917;PMS5003;63639;52.280;5.162;2022-11-15T01:00:03;64;53;
73917;PMS5003;63639;52.280;5.162;2022-11-15T01:02:31;69;55;
73917;PMS5003;63639;52.280;5.162;2022-11-15T01:04:58;62;54;
73917;PMS5003;63639;52.280;5.162;2022-11-15T01:07:25;66;57;
73917;PMS5003;63639;52.280;5.162;2022-11-15T01:09:51;66;52;
73917;PMS5003;63639;52.280;5.162;2022-11-15T01:12:18;62;52;
73917;PMS5003;63639;52.280;5.162;2022-11-15T01:14:45;57;54;
73917;PMS5003;63639;52.280;5.162;2022-11-15T01:17:12;61;51;
73917;PMS5003;63639;52.280;5.162;2022-11-15T01:19:39;63;53;
73917;PMS5003;63639;52.280;5.162;2022-11-15T01:22:06;67;54;
73917;PMS5003;63639;52.280;5.162;2022-11-15T01:24:33;68;55;
73917;PMS5003;63639;52.280;5.162;2022-11-15T01:26:59;61;54;
73917;PMS5003;63639;52.280;5.162;2022-11-15T01:29:26;61;52;
73917;PMS5003;63639;52.280;5.162;2022-11-15T01:31:53;69;66;
73917;PMS5003;63639;52.280;5.162;2022-11-15T01:34:20;64;54;
73917;PMS5003;63639;52.280;5.162;2022-11-15T01:36:46;60;52;
73917;PMS5003;63639;52.280;5.162;2022-11-15T01:39:13;60;54;
73917;PMS5003;63639;52.280;5.162;2022-11-15T01:41:40;59;56;
73917;PMS5003;63639;52.280;5.162;2022-11-15T01:45:12;63;49;
73917;PMS5003;63639;52.280;5.162;2022-11-15T01:47:42;63;59;
73917;PMS5003;63639;52.280;5.162;2022-11-15T01:50:13;74;63;
73917;PMS5003;63639;52.280;5.162;2022-11-15T01:52:43;63;56;
73917;PMS5003;63639;52.280;5.162;2022-11-15T01:55:12;66;57;
73917;PMS5003;63639;52.280;5.162;2022-11-15T01:57:45;62;54;
73917;PMS5003;63639;52.280;5.162;2022-11-15T02:03:19;62;58;
73917;PMS5003;63639;52.280;5.162;2022-11-15T02:05:51;73;63;
73917;PMS5003;63639;52.280;5.162;2022-11-15T02:08:19;71;56;
73917;PMS5003;63639;52.280;5.162;2022-11-15T02:10:46;67;61;
73917;PMS5003;63639;52.280;5.162;2022-11-15T02:13:13;64;55;
73917;PMS5003;63639;52.280;5.162;2022-11-15T02:15:42;64;59;
73917;PMS5003;63639;52.280;5.162;2022-11-15T02:18:18;68;56;
73917;PMS5003;63639;52.280;5.162;2022-11-15T02:20:55;70;64;
73917;PMS5003;63639;52.280;5.162;2022-11-15T02:23:35;77;65;
73917;PMS5003;63639;52.280;5.162;2022-11-15T02:26:28;72;65;
73917;PMS5003;63639;52.280;5.162;2022-11-15T02:29:13;77;64;
73917;PMS5003;63639;52.280;5.162;2022-11-15T02:31:50;75;62;
73917;PMS5003;63639;52.280;5.162;2022-11-15T02:34:25;61;53;
73917;PMS5003;63639;52.280;5.162;2022-11-15T02:36:59;71;63;
73917;PMS5003;63639;52.280;5.162;2022-11-15T02:39:34;68;60;
73917;PMS5003;63639;52.280;5.162;2022-11-15T02:42:07;82;73;
73917;PMS5003;63639;52.280;5.162;2022-11-15T02:44:40;80;68;
73917;PMS5003;63639;52.280;5.162;2022-11-15T02:47:11;65;58;
73917;PMS5003;63639;52.280;5.162;2022-11-15T02:49:43;74;64;
73917;PMS5003;63639;52.280;5.162;2022-11-15T02:52:14;74;63;
73917;PMS5003;63639;52.280;5.162;2022-11-15T02:54:42;69;63;
73917;PMS5003;63639;52.280;5.162;2022-11-15T02:57:12;65;61;
73917;PMS5003;63639;52.280;5.162;2022-11-15T02:59:46;77;67;
73917;PMS5003;63639;52.280;5.162;2022-11-15T03:02:31;77;64;
73917;PMS5003;63639;52.280;5.162;2022-11-15T03:05:10;66;62;
73917;PMS5003;63639;52.280;5.162;2022-11-15T03:07:46;67;59;
73917;PMS5003;63639;52.280;5.162;2022-11-15T03:10:20;75;66;
73917;PMS5003;63639;52.280;5.162;2022-11-15T03:12:54;67;60;
73917;PMS5003;63639;52.280;5.162;2022-11-15T03:15:25;69;64;
73917;PMS5003;63639;52.280;5.162;2022-11-15T03:17:58;70;65;
73917;PMS5003;63639;52.280;5.162;2022-11-15T03:20:27;63;59;
73917;PMS5003;63639;52.280;5.162;2022-11-15T03:22:55;65;59;
73917;PMS5003;63639;52.280;5.162;2022-11-15T03:25:26;85;62;
73917;PMS5003;63639;52.280;5.162;2022-11-15T03:27:57;71;58;
73917;PMS5003;63639;52.280;5.162;2022-11-15T03:30:28;74;70;
73917;PMS5003;63639;52.280;5.162;2022-11-15T03:32:57;67;64;
73917;PMS5003;63639;52.280;5.162;2022-11-15T03:35:27;73;64;
73917;PMS5003;63639;52.280;5.162;2022-11-15T03:37:57;74;65;
73917;PMS5003;63639;52.280;5.162;2022-11-15T03:40:33;72;65;
73917;PMS5003;63639;52.280;5.162;2022-11-15T03:43:04;69;65;
73917;PMS5003;63639;52.280;5.162;2022-11-15T03:45:39;77;69;
73917;PMS5003;63639;52.280;5.162;2022-11-15T03:48:12;66;60;
73917;PMS5003;63639;52.280;5.162;2022-11-15T03:50:42;82;72;
73917;PMS5003;63639;52.280;5.162;2022-11-15T03:53:11;82;66;
73917;PMS5003;63639;52.280;5.162;2022-11-15T03:55:38;67;61;
73917;PMS5003;63639;52.280;5.162;2022-11-15T03:58:05;56;52;
73917;PMS5003;63639;52.280;5.162;2022-11-15T04:00:32;80;70;
73917;PMS5003;63639;52.280;5.162;2022-11-15T04:02:59;70;68;
73917;PMS5003;63639;52.280;5.162;2022-11-15T04:05:25;69;64;
73917;PMS5003;63639;52.280;5.162;2022-11-15T04:07:52;74;67;
73917;PMS5003;63639;52.280;5.162;2022-11-15T04:10:19;64;61;
73917;PMS5003;63639;52.280;5.162;2022-11-15T04:12:46;70;65;
73917;PMS5003;63639;52.280;5.162;2022-11-15T04:15:13;71;66;
73917;PMS5003;63639;52.280;5.162;2022-11-15T04:17:43;70;64;
73917;PMS5003;63639;52.280;5.162;2022-11-15T04:20:12;74;64;
73917;PMS5003;63639;52.280;5.162;2022-11-15T04:22:41;62;55;
73917;PMS5003;63639;52.280;5.162;2022-11-15T04:25:08;83;73;
73917;PMS5003;63639;52.280;5.162;2022-11-15T04:27:35;56;53;
73917;PMS5003;63639;52.280;5.162;2022-11-15T04:30:02;75;65;
73917;PMS5003;63639;52.280;5.162;2022-11-15T04:32:29;72;64;
73917;PMS5003;63639;52.280;5.162;2022-11-15T04:34:56;73;62;
73917;PMS5003;63639;52.280;5.162;2022-11-15T04:37:23;70;63;
73917;PMS5003;63639;52.280;5.162;2022-11-15T04:39:50;73;63;
73917;PMS5003;63639;52.280;5.162;2022-11-15T04:42:17;71;65;
73917;PMS5003;63639;52.280;5.162;2022-11-15T04:44:43;62;56;
73917;PMS5003;63639;52.280;5.162;2022-11-15T04:47:10;64;60;
73917;PMS5003;63639;52.280;5.162;2022-11-15T04:49:38;65;59;
73917;PMS5003;63639;52.280;5.162;2022-11-15T04:52:04;78;62;
73917;PMS5003;63639;52.280;5.162;2022-11-15T04:54:31;59;55;
73917;PMS5003;63639;52.280;5.162;2022-11-15T04:56:58;65;57;
73917;PMS5003;63639;52.280;5.162;2022-11-15T04:59:25;64;55;
73917;PMS5003;63639;52.280;5.162;2022-11-15T05:01:52;58;50;
73917;PMS5003;63639;52.280;5.162;2022-11-15T05:04:18;66;62;
73917;PMS5003;63639;52.280;5.162;2022-11-15T05:06:45;62;60;
73917;PMS5003;63639;52.280;5.162;2022-11-15T05:09:13;60;57;
73917;PMS5003;63639;52.280;5.162;2022-11-15T05:11:40;65;55;
73917;PMS5003;63639;52.280;5.162;2022-11-15T05:14:07;65;55;
73917;PMS5003;63639;52.280;5.162;2022-11-15T05:16:35;60;54;
73917;PMS5003;63639;52.280;5.162;2022-11-15T05:19:02;64;55;
73917;PMS5003;63639;52.280;5.162;2022-11-15T05:21:30;66;62;
73917;PMS5003;63639;52.280;5.162;2022-11-15T05:23:58;63;60;
73917;PMS5003;63639;52.280;5.162;2022-11-15T05:26:24;57;54;
73917;PMS5003;63639;52.280;5.162;2022-11-15T05:28:52;58;54;
73917;PMS5003;63639;52.280;5.162;2022-11-15T05:31:19;59;52;
73917;PMS5003;63639;52.280;5.162;2022-11-15T05:33:46;47;47;
73917;PMS5003;63639;52.280;5.162;2022-11-15T05:36:14;59;53;
73917;PMS5003;63639;52.280;5.162;2022-11-15T05:38:44;52;49;
73917;PMS5003;63639;52.280;5.162;2022-11-15T05:41:12;53;44;
73917;PMS5003;63639;52.280;5.162;2022-11-15T05:43:39;56;49;
73917;PMS5003;63639;52.280;5.162;2022-11-15T05:46:09;56;52;
73917;PMS5003;63639;52.280;5.162;2022-11-15T05:48:37;50;46;
73917;PMS5003;63639;52.280;5.162;2022-11-15T05:51:06;52;50;
73917;PMS5003;63639;52.280;5.162;2022-11-15T05:53:33;54;46;
73917;PMS5003;63639;52.280;5.162;2022-11-15T05:56:02;57;51;
73917;PMS5003;63639;52.280;5.162;2022-11-15T05:58:30;54;48;
73917;PMS5003;63639;52.280;5.162;2022-11-15T06:00:58;54;50;
73917;PMS5003;63639;52.280;5.162;2022-11-15T06:03:26;54;49;
73917;PMS5003;63639;52.280;5.162;2022-11-15T06:05:53;51;44;
73917;PMS5003;63639;52.280;5.162;2022-11-15T06:08:19;51;48;
73917;PMS5003;63639;52.280;5.162;2022-11-15T06:10:46;65;57;
73917;PMS5003;63639;52.280;5.162;2022-11-15T06:13:13;59;52;
73917;PMS5003;63639;52.280;5.162;2022-11-15T06:15:39;51;48;
73917;PMS5003;63639;52.280;5.162;2022-11-15T06:18:06;50;48;
73917;PMS5003;63639;52.280;5.162;2022-11-15T06:20:33;48;45;
73917;PMS5003;63639;52.280;5.162;2022-11-15T06:23:01;56;46;
73917;PMS5003;63639;52.280;5.162;2022-11-15T06:25:30;52;49;
73917;PMS5003;63639;52.280;5.162;2022-11-15T06:27:58;51;48;
73917;PMS5003;63639;52.280;5.162;2022-11-15T06:30:25;50;43;
73917;PMS5003;63639;52.280;5.162;2022-11-15T06:32:58;55;51;
73917;PMS5003;63639;52.280;5.162;2022-11-15T06:35:25;56;50;
73917;PMS5003;63639;52.280;5.162;2022-11-15T06:37:52;54;47;
73917;PMS5003;63639;52.280;5.162;2022-11-15T06:40:19;60;52;
73917;PMS5003;63639;52.280;5.162;2022-11-15T06:42:46;55;51;
73917;PMS5003;63639;52.280;5.162;2022-11-15T06:45:12;45;45;
73917;PMS5003;63639;52.280;5.162;2022-11-15T06:47:44;46;42;
73917;PMS5003;63639;52.280;5.162;2022-11-15T06:50:11;50;48;
73917;PMS5003;63639;52.280;5.162;2022-11-15T06:52:38;53;49;
73917;PMS5003;63639;52.280;5.162;2022-11-15T06:55:05;50;48;
73917;PMS5003;63639;52.280;5.162;2022-11-15T06:57:33;52;45;
73917;PMS5003;63639;52.280;5.162;2022-11-15T07:00:00;52;48;
73917;PMS5003;63639;52.280;5.162;2022-11-15T07:02:27;48;42;
73917;PMS5003;63639;52.280;5.162;2022-11-15T07:04:54;51;43;
73917;PMS5003;63639;52.280;5.162;2022-11-15T07:07:21;48;46;
73917;PMS5003;63639;52.280;5.162;2022-11-15T07:09:48;50;45;
73917;PMS5003;63639;52.280;5.162;2022-11-15T07:12:15;56;52;
73917;PMS5003;63639;52.280;5.162;2022-11-15T07:14:41;48;44;
73917;PMS5003;63639;52.280;5.162;2022-11-15T07:17:08;41;39;
73917;PMS5003;63639;52.280;5.162;2022-11-15T07:19:34;49;43;
73917;PMS5003;63639;52.280;5.162;2022-11-15T07:22:01;48;42;
73917;PMS5003;63639;52.280;5.162;2022-11-15T07:24:28;51;46;
73917;PMS5003;63639;52.280;5.162;2022-11-15T07:26:54;49;43;
73917;PMS5003;63639;52.280;5.162;2022-11-15T07:29:21;54;51;
73917;PMS5003;63639;52.280;5.162;2022-11-15T07:31:48;56;53;
73917;PMS5003;63639;52.280;5.162;2022-11-15T07:34:15;53;47;
73917;PMS5003;63639;52.280;5.162;2022-11-15T07:36:42;51;48;
73917;PMS5003;63639;52.280;5.162;2022-11-15T07:39:09;53;45;
73917;PMS5003;63639;52.280;5.162;2022-11-15T07:41:36;42;41;
73917;PMS5003;63639;52.280;5.162;2022-11-15T07:44:07;46;40;
73917;PMS5003;63639;52.280;5.162;2022-11-15T07:46:33;41;39;
73917;PMS5003;63639;52.280;5.162;2022-11-15T07:49:00;44;42;
73917;PMS5003;63639;52.280;5.162;2022-11-15T07:51:27;39;37;
73917;PMS5003;63639;52.280;5.162;2022-11-15T07:53:54;42;40;
73917;PMS5003;63639;52.280;5.162;2022-11-15T07:56:21;40;37;
73917;PMS5003;63639;52.280;5.162;2022-11-15T07:58:48;42;41;
73917;PMS5003;63639;52.280;5.162;2022-11-15T08:01:14;41;36;
73917;PMS5003;63639;52.280;5.162;2022-11-15T08:03:41;42;40;
73917;PMS5003;63639;52.280;5.162;2022-11-15T08:06:08;49;43;
73917;PMS5003;63639;52.280;5.162;2022-11-15T08:08:35;51;48;
73917;PMS5003;63639;52.280;5.162;2022-11-15T08:11:02;37;37;
73917;PMS5003;63639;52.280;5.162;2022-11-15T08:13:29;49;40;
73917;PMS5003;63639;52.280;5.162;2022-11-15T08:16:01;39;33;
73917;PMS5003;63639;52.280;5.162;2022-11-15T08:18:29;39;38;
73917;PMS5003;63639;52.280;5.162;2022-11-15T08:20:58;39;37;
73917;PMS5003;63639;52.280;5.162;2022-11-15T08:23:25;40;36;
73917;PMS5003;63639;52.280;5.162;2022-11-15T08:25:58;43;37;
73917;PMS5003;63639;52.280;5.162;2022-11-15T08:28:25;41;38;
73917;PMS5003;63639;52.280;5.162;2022-11-15T08:30:52;40;38;
73917;PMS5003;63639;52.280;5.162;2022-11-15T08:33:19;42;37;
73917;PMS5003;63639;52.280;5.162;2022-11-15T08:35:46;42;36;
73917;PMS5003;63639;52.280;5.162;2022-11-15T08:38:13;35;35;
73917;PMS5003;63639;52.280;5.162;2022-11-15T08:40:40;43;40;
73917;PMS5003;63639;52.280;5.162;2022-11-15T08:43:07;40;37;
73917;PMS5003;63639;52.280;5.162;2022-11-15T08:45:34;40;36;
73917;PMS5003;63639;52.280;5.162;2022-11-15T08:48:01;32;29;
73917;PMS5003;63639;52.280;5.162;2022-11-15T08:50:29;36;32;
73917;PMS5003;63639;52.280;5.162;2022-11-15T08:52:55;38;36;
73917;PMS5003;63639;52.280;5.162;2022-11-15T08:55:22;38;36;
73917;PMS5003;63639;52.280;5.162;2022-11-15T08:57:49;29;27;
73917;PMS5003;63639;52.280;5.162;2022-11-15T09:00:16;38;32;
73917;PMS5003;63639;52.280;5.162;2022-11-15T09:02:44;36;32;
73917;PMS5003;63639;52.280;5.162;2022-11-15T09:05:10;34;33;
73917;PMS5003;63639;52.280;5.162;2022-11-15T09:07:37;30;30;
73917;PMS5003;63639;52.280;5.162;2022-11-15T09:10:04;29;29;
73917;PMS5003;63639;52.280;5.162;2022-11-15T09:12:30;31;25;
73917;PMS5003;63639;52.280;5.162;2022-11-15T09:14:57;37;31;
73917;PMS5003;63639;52.280;5.162;2022-11-15T09:17:24;35;30;
73917;PMS5003;63639;52.280;5.162;2022-11-15T09:19:51;40;32;
73917;PMS5003;63639;52.280;5.162;2022-11-15T09:22:17;29;27;
73917;PMS5003;63639;52.280;5.162;2022-11-15T09:24:44;30;23;
73917;PMS5003;63639;52.280;5.162;2022-11-15T09:27:11;30;25;
73917;PMS5003;63639;52.280;5.162;2022-11-15T09:29:38;24;22;
73917;PMS5003;63639;52.280;5.162;2022-11-15T09:32:05;24;23;
73917;PMS5003;63639;52.280;5.162;2022-11-15T09:34:32;23;22;
73917;PMS5003;63639;52.280;5.162;2022-11-15T09:36:59;23;22;
73917;PMS5003;63639;52.280;5.162;2022-11-15T09:39:25;24;22;
73917;PMS5003;63639;52.280;5.162;2022-11-15T09:41:57;25;24;
73917;PMS5003;63639;52.280;5.162;2022-11-15T09:44:38;28;28;
73917;PMS5003;63639;52.280;5.162;2022-11-15T09:47:27;23;23;
73917;PMS5003;63639;52.280;5.162;2022-11-15T09:50:08;30;25;
73917;PMS5003;63639;52.280;5.162;2022-11-15T09:52:39;21;19;
73917;PMS5003;63639;52.280;5.162;2022-11-15T09:55:10;27;25;
73917;PMS5003;63639;52.280;5.162;2022-11-15T09:57:41;20;20;
73917;PMS5003;63639;52.280;5.162;2022-11-15T10:00:14;21;18;
73917;PMS5003;63639;52.280;5.162;2022-11-15T10:02:51;20;18;
73917;PMS5003;63639;52.280;5.162;2022-11-15T10:05:36;19;19;
73917;PMS5003;63639;52.280;5.162;2022-11-15T10:08:09;13;12;
73917;PMS5003;63639;52.280;5.162;2022-11-15T10:10:50;21;19;
73917;PMS5003;63639;52.280;5.162;2022-11-15T10:13:22;13;13;
73917;PMS5003;63639;52.280;5.162;2022-11-15T10:15:51;16;16;
73917;PMS5003;63639;52.280;5.162;2022-11-15T10:18:21;15;15;
73917;PMS5003;63639;52.280;5.162;2022-11-15T10:20:58;17;17;
73917;PMS5003;63639;52.280;5.162;2022-11-15T10:23:26;15;15;
73917;PMS5003;63639;52.280;5.162;2022-11-15T10:25:57;22;19;
73917;PMS5003;63639;52.280;5.162;2022-11-15T10:28:26;15;12;
73917;PMS5003;63639;52.280;5.162;2022-11-15T10:30:54;13;13;
73917;PMS5003;63639;52.280;5.162;2022-11-15T10:33:25;20;16;
73917;PMS5003;63639;52.280;5.162;2022-11-15T10:36:28;17;17;
73917;PMS5003;63639;52.280;5.162;2022-11-15T10:38:56;17;17;
73917;PMS5003;63639;52.280;5.162;2022-11-15T10:41:32;16;15;
73917;PMS5003;63639;52.280;5.162;2022-11-15T10:44:08;15;15;
73917;PMS5003;63639;52.280;5.162;2022-11-15T10:46:42;11;11;
73917;PMS5003;63639;52.280;5.162;2022-11-15T10:49:12;19;14;
73917;PMS5003;63639;52.280;5.162;2022-11-15T10:51:43;15;12;
73917;PMS5003;63639;52.280;5.162;2022-11-15T10:54:12;16;14;
73917;PMS5003;63639;52.280;5.162;2022-11-15T10:56:44;16;14;
73917;PMS5003;63639;52.280;5.162;2022-11-15T10:59:18;15;15;
73917;PMS5003;63639;52.280;5.162;2022-11-15T11:01:50;15;15;
73917;PMS5003;63639;52.280;5.162;2022-11-15T11:04:17;15;14;
73917;PMS5003;63639;52.280;5.162;2022-11-15T11:06:47;14;13;
73917;PMS5003;63639;52.280;5.162;2022-11-15T11:09:22;14;12;
73917;PMS5003;63639;52.280;5.162;2022-11-15T11:11:54;12;10;
73917;PMS5003;63639;52.280;5.162;2022-11-15T11:14:21;15;15;
73917;PMS5003;63639;52.280;5.162;2022-11-15T11:16:50;14;14;
73917;PMS5003;63639;52.280;5.162;2022-11-15T11:19:27;14;11;
73917;PMS5003;63639;52.280;5.162;2022-11-15T11:22:05;12;12;
73917;PMS5003;63639;52.280;5.162;2022-11-15T11:24:41;14;12;
73917;PMS5003;63639;52.280;5.162;2022-11-15T11:27:13;10;10;
73917;PMS5003;63639;52.280;5.162;2022-11-15T11:29:53;13;13;
73917;PMS5003;63639;52.280;5.162;2022-11-15T11:32:33;11;11;
73917;PMS5003;63639;52.280;5.162;2022-11-15T11:35:11;11;8;
73917;PMS5003;63639;52.280;5.162;2022-11-15T11:37:45;8;8;
73917;PMS5003;63639;52.280;5.162;2022-11-15T11:40:19;6;6;
73917;PMS5003;63639;52.280;5.162;2022-11-15T11:42:55;13;12;
73917;PMS5003;63639;52.280;5.162;2022-11-15T11:45:33;10;9;
73917;PMS5003;63639;52.280;5.162;2022-11-15T11:48:23;8;7;
73917;PMS5003;63639;52.280;5.162;2022-11-15T11:51:03;8;7;
73917;PMS5003;63639;52.280;5.162;2022-11-15T11:53:38;8;8;
73917;PMS5003;63639;52.280;5.162;2022-11-15T11:56:14;8;8;
73917;PMS5003;63639;52.280;5.162;2022-11-15T11:58:46;4;4;
73917;PMS5003;63639;52.280;5.162;2022-11-15T12:01:18;7;4;
73917;PMS5003;63639;52.280;5.162;2022-11-15T12:03:51;5;5;
73917;PMS5003;63639;52.280;5.162;2022-11-15T12:06:29;5;5;
73917;PMS5003;63639;52.280;5.162;2022-11-15T12:09:01;9;6;
73917;PMS5003;63639;52.280;5.162;2022-11-15T12:11:35;9;7;
73917;PMS5003;63639;52.280;5.162;2022-11-15T12:14:10;5;5;
73917;PMS5003;63639;52.280;5.162;2022-11-15T12:16:42;5;5;
73917;PMS5003;63639;52.280;5.162;2022-11-15T12:19:09;7;7;
73917;PMS5003;63639;52.280;5.162;2022-11-15T12:21:38;7;5;
73917;PMS5003;63639;52.280;5.162;2022-11-15T12:24:12;7;4;
73917;PMS5003;63639;52.280;5.162;2022-11-15T12:26:46;4;4;
73917;PMS5003;63639;52.280;5.162;2022-11-15T12:29:19;5;5;
73917;PMS5003;63639;52.280;5.162;2022-11-15T12:31:51;6;6;
73917;PMS5003;63639;52.280;5.162;2022-11-15T12:34:37;4;3;
73917;PMS5003;63639;52.280;5.162;2022-11-15T12:37:32;6;6;
73917;PMS5003;63639;52.280;5.162;2022-11-15T12:40:05;5;5;
73917;PMS5003;63639;52.280;5.162;2022-11-15T12:42:56;5;5;
73917;PMS5003;63639;52.280;5.162;2022-11-15T12:45:27;4;4;
73917;PMS5003;63639;52.280;5.162;2022-11-15T12:47:56;6;3;
73917;PMS5003;63639;52.280;5.162;2022-11-15T12:51:11;6;6;
73917;PMS5003;63639;52.280;5.162;2022-11-15T12:53:38;2;2;
73917;PMS5003;63639;52.280;5.162;2022-11-15T12:56:15;4;4;
73917;PMS5003;63639;52.280;5.162;2022-11-15T12:58:46;4;4;
73917;PMS5003;63639;52.280;5.162;2022-11-15T13:02:21;7;3;
73917;PMS5003;63639;52.280;5.162;2022-11-15T13:04:50;5;5;
73917;PMS5003;63639;52.280;5.162;2022-11-15T13:07:54;4;4;
73917;PMS5003;63639;52.280;5.162;2022-11-15T13:10:31;4;3;
73917;PMS5003;63639;52.280;5.162;2022-11-15T13:13:00;3;3;
73917;PMS5003;63639;52.280;5.162;2022-11-15T13:16:00;3;3;
73917;PMS5003;63639;52.280;5.162;2022-11-15T13:18:29;4;4;
73917;PMS5003;63639;52.280;5.162;2022-11-15T13:20:58;2;2;
73917;PMS5003;63639;52.280;5.162;2022-11-15T13:23:25;6;6;
73917;PMS5003;63639;52.280;5.162;2022-11-15T13:25:56;2;2;
73917;PMS5003;63639;52.280;5.162;2022-11-15T13:28:33;3;3;
73917;PMS5003;63639;52.280;5.162;2022-11-15T13:31:05;3;2;
73917;PMS5003;63639;52.280;5.162;2022-11-15T13:33:45;5;3;
73917;PMS5003;63639;52.280;5.162;2022-11-15T13:36:13;2;2;
73917;PMS5003;63639;52.280;5.162;2022-11-15T13:38:43;4;4;
73917;PMS5003;63639;52.280;5.162;2022-11-15T13:41:11;3;3;
73917;PMS5003;63639;52.280;5.162;2022-11-15T13:43:44;4;4;
73917;PMS5003;63639;52.280;5.162;2022-11-15T13:46:12;5;3;
73917;PMS5003;63639;52.280;5.162;2022-11-15T13:48:42;3;3;
73917;PMS5003;63639;52.280;5.162;2022-11-15T13:51:13;3;3;
73917;PMS5003;63639;52.280;5.162;2022-11-15T13:53:44;4;3;
73917;PMS5003;63639;52.280;5.162;2022-11-15T13:56:14;6;5;
73917;PMS5003;63639;52.280;5.162;2022-11-15T13:58:43;3;3;
73917;PMS5003;63639;52.280;5.162;2022-11-15T14:01:14;3;3;
73917;PMS5003;63639;52.280;5.162;2022-11-15T14:03:46;2;2;
73917;PMS5003;63639;52.280;5.162;2022-11-15T14:06:17;7;5;
73917;PMS5003;63639;52.280;5.162;2022-11-15T14:08:58;4;3;
73917;PMS5003;63639;52.280;5.162;2022-11-15T14:11:27;5;3;
73917;PMS5003;63639;52.280;5.162;2022-11-15T14:14:10;4;4;
73917;PMS5003;63639;52.280;5.162;2022-11-15T14:16:40;5;5;
73917;PMS5003;63639;52.280;5.162;2022-11-15T14:19:09;6;4;
73917;PMS5003;63639;52.280;5.162;2022-11-15T14:21:37;5;5;
73917;PMS5003;63639;52.280;5.162;2022-11-15T14:24:33;6;4;
73917;PMS5003;63639;52.280;5.162;2022-11-15T14:27:15;5;5;
73917;PMS5003;63639;52.280;5.162;2022-11-15T14:29:42;7;7;
73917;PMS5003;63639;52.280;5.162;2022-11-15T14:32:12;6;5;
73917;PMS5003;63639;52.280;5.162;2022-11-15T14:34:41;6;5;
73917;PMS5003;63639;52.280;5.162;2022-11-15T14:37:10;8;7;
73917;PMS5003;63639;52.280;5.162;2022-11-15T14:39:45;4;4;
73917;PMS5003;63639;52.280;5.162;2022-11-15T14:42:12;7;6;
73917;PMS5003;63639;52.280;5.162;2022-11-15T14:44:39;5;5;
73917;PMS5003;63639;52.280;5.162;2022-11-15T14:47:06;5;5;
73917;PMS5003;63639;52.280;5.162;2022-11-15T14:49:33;10;9;
73917;PMS5003;63639;52.280;5.162;2022-11-15T14:52:00;7;6;
73917;PMS5003;63639;52.280;5.162;2022-11-15T14:54:27;8;7;
73917;PMS5003;63639;52.280;5.162;2022-11-15T14:56:53;6;6;
73917;PMS5003;63639;52.280;5.162;2022-11-15T14:59:20;7;5;
73917;PMS5003;63639;52.280;5.162;2022-11-15T15:01:47;5;5;
73917;PMS5003;63639;52.280;5.162;2022-11-15T15:04:14;7;7;
73917;PMS5003;63639;52.280;5.162;2022-11-15T15:06:40;5;4;
73917;PMS5003;63639;52.280;5.162;2022-11-15T15:09:07;9;6;
73917;PMS5003;63639;52.280;5.162;2022-11-15T15:11:34;10;7;
73917;PMS5003;63639;52.280;5.162;2022-11-15T15:14:01;4;4;
73917;PMS5003;63639;52.280;5.162;2022-11-15T15:16:28;5;5;
73917;PMS5003;63639;52.280;5.162;2022-11-15T15:18:54;6;5;
73917;PMS5003;63639;52.280;5.162;2022-11-15T15:21:22;6;5;
73917;PMS5003;63639;52.280;5.162;2022-11-15T15:23:50;6;6;
73917;PMS5003;63639;52.280;5.162;2022-11-15T15:26:17;4;4;
73917;PMS5003;63639;52.280;5.162;2022-11-15T15:28:43;7;6;
73917;PMS5003;63639;52.280;5.162;2022-11-15T15:31:10;5;5;
73917;PMS5003;63639;52.280;5.162;2022-11-15T15:33:37;8;5;
73917;PMS5003;63639;52.280;5.162;2022-11-15T15:36:04;7;6;
73917;PMS5003;63639;52.280;5.162;2022-11-15T15:38:32;5;5;
73917;PMS5003;63639;52.280;5.162;2022-11-15T15:40:59;5;5;
73917;PMS5003;63639;52.280;5.162;2022-11-15T15:43:25;4;4;
73917;PMS5003;63639;52.280;5.162;2022-11-15T15:45:53;7;6;
73917;PMS5003;63639;52.280;5.162;2022-11-15T15:48:20;6;5;
73917;PMS5003;63639;52.280;5.162;2022-11-15T15:50:47;5;5;
73917;PMS5003;63639;52.280;5.162;2022-11-15T15:53:14;6;6;
73917;PMS5003;63639;52.280;5.162;2022-11-15T15:55:40;5;5;
73917;PMS5003;63639;52.280;5.162;2022-11-15T15:58:07;6;6;
73917;PMS5003;63639;52.280;5.162;2022-11-15T16:00:34;4;4;
73917;PMS5003;63639;52.280;5.162;2022-11-15T16:03:02;4;4;
73917;PMS5003;63639;52.280;5.162;2022-11-15T16:05:29;4;4;
73917;PMS5003;63639;52.280;5.162;2022-11-15T16:07:56;4;4;
73917;PMS5003;63639;52.280;5.162;2022-11-15T16:10:23;6;6;
73917;PMS5003;63639;52.280;5.162;2022-11-15T16:12:51;8;5;
73917;PMS5003;63639;52.280;5.162;2022-11-15T16:15:19;6;5;
73917;PMS5003;63639;52.280;5.162;2022-11-15T16:17:47;7;7;
73917;PMS5003;63639;52.280;5.162;2022-11-15T16:20:21;10;10;
73917;PMS5003;63639;52.280;5.162;2022-11-15T16:22:53;7;7;
73917;PMS5003;63639;52.280;5.162;2022-11-15T16:25:20;6;6;
73917;PMS5003;63639;52.280;5.162;2022-11-15T16:27:47;7;5;
73917;PMS5003;63639;52.280;5.162;2022-11-15T16:30:15;6;6;
73917;PMS5003;63639;52.280;5.162;2022-11-15T16:32:43;8;7;
73917;PMS5003;63639;52.280;5.162;2022-11-15T16:35:10;8;8;
73917;PMS5003;63639;52.280;5.162;2022-11-15T16:37:38;7;7;
73917;PMS5003;63639;52.280;5.162;2022-11-15T16:40:07;8;6;
73917;PMS5003;63639;52.280;5.162;2022-11-15T16:42:43;5;5;
73917;PMS5003;63639;52.280;5.162;2022-11-15T16:45:10;8;5;
73917;PMS5003;63639;52.280;5.162;2022-11-15T16:47:37;6;5;
73917;PMS5003;63639;52.280;5.162;2022-11-15T16:50:04;5;4;
73917;PMS5003;63639;52.280;5.162;2022-11-15T16:52:32;9;8;